createdAt,value
2022-12-13T00:00:54.288Z,-0.80
2022-12-13T00:04:00.300Z,-0.50
2022-12-13T00:07:03.289Z,-0.60
2022-12-13T00:10:08.352Z,-0.50
2022-12-13T00:13:11.344Z,-0.80
2022-12-13T00:16:16.762Z,-0.70
2022-12-13T00:19:21.341Z,-0.70
2022-12-13T00:22:24.319Z,-0.50
2022-12-13T00:25:27.478Z,-0.70
2022-12-13T00:28:30.495Z,-0.50
2022-12-13T00:34:57.717Z,-0.70
2022-12-13T00:38:00.670Z,-0.50
2022-12-13T00:41:11.847Z,-0.40
2022-12-13T00:44:15.636Z,-0.40
2022-12-13T00:47:20.668Z,-0.40
2022-12-13T00:50:25.033Z,-0.60
2022-12-13T00:53:28.010Z,-0.60
2022-12-13T00:56:32.660Z,-0.60
2022-12-13T00:59:35.558Z,-0.40
2022-12-13T01:02:38.470Z,-0.50
2022-12-13T01:06:13.634Z,-0.40
2022-12-13T01:09:08.969Z,-0.50
2022-12-13T01:12:12.643Z,-0.40
2022-12-13T01:15:15.718Z,-0.50
2022-12-13T01:18:19.364Z,-0.50
2022-12-13T01:21:23.671Z,-0.80
2022-12-13T01:24:27.023Z,-0.60
2022-12-13T01:27:30.011Z,-0.60
2022-12-13T01:30:33.037Z,-0.70
2022-12-13T01:33:36.173Z,-0.50
2022-12-13T01:36:41.467Z,-0.50
2022-12-13T01:39:44.491Z,-0.50
2022-12-13T01:42:47.350Z,-0.90
2022-12-13T01:45:50.355Z,-0.50
2022-12-13T01:49:01.491Z,-0.50
2022-12-13T01:52:10.521Z,-0.40
2022-12-13T01:55:15.268Z,-0.40
2022-12-13T01:58:19.124Z,-0.50
2022-12-13T02:01:23.440Z,-0.60
2022-12-13T02:04:32.529Z,-0.50
2022-12-13T02:07:39.385Z,-0.40
2022-12-13T02:10:43.750Z,-0.70
2022-12-13T02:13:46.736Z,-0.40
2022-12-13T02:17:01.248Z,-0.40
2022-12-13T02:20:41.841Z,-0.50
2022-12-13T02:24:29.299Z,-0.40
2022-12-13T02:27:45.125Z,-0.40
2022-12-13T02:30:54.181Z,-0.60
2022-12-13T02:34:03.182Z,-0.30
2022-12-13T02:37:17.631Z,-0.50
2022-12-13T02:40:27.333Z,-0.50
2022-12-13T02:43:35.834Z,-0.70
2022-12-13T02:46:44.028Z,-0.70
2022-12-13T02:49:50.839Z,-0.80
2022-12-13T02:52:55.419Z,-0.50
2022-12-13T02:55:58.380Z,-0.60
2022-12-13T02:59:09.877Z,-0.70
2022-12-13T03:02:31.183Z,-0.40
2022-12-13T03:06:01.856Z,-0.50
2022-12-13T03:09:28.137Z,-0.40
2022-12-13T03:12:56.317Z,-0.80
2022-12-13T03:16:01.276Z,-0.60
2022-12-13T03:19:07.991Z,-0.60
2022-12-13T03:22:11.057Z,-0.40
2022-12-13T03:25:15.176Z,-0.50
2022-12-13T03:28:34.867Z,-0.80
2022-12-13T03:31:37.863Z,-0.40
2022-12-13T03:34:43.328Z,-0.70
2022-12-13T03:37:46.880Z,-0.60
2022-12-13T03:40:50.523Z,-0.60
2022-12-13T03:43:53.660Z,-0.50
2022-12-13T03:46:56.600Z,-0.50
2022-12-13T03:50:25.548Z,-0.40
2022-12-13T03:53:33.674Z,-0.40
2022-12-13T03:56:37.301Z,-0.40
2022-12-13T03:59:40.248Z,-0.40
2022-12-13T04:02:43.255Z,-0.60
2022-12-13T04:05:47.527Z,-0.60
2022-12-13T04:08:51.000Z,-0.40
2022-12-13T04:12:11.623Z,-0.50
2022-12-13T04:15:14.825Z,-0.60
2022-12-13T04:18:18.990Z,-0.30
2022-12-13T04:21:23.303Z,-0.60
2022-12-13T04:24:31.397Z,-0.60
2022-12-13T04:27:34.968Z,-0.70
2022-12-13T04:30:38.101Z,-0.50
2022-12-13T04:33:41.024Z,-0.50
2022-12-13T04:36:45.306Z,-0.70
2022-12-13T04:39:48.283Z,-0.40
2022-12-13T04:42:53.821Z,-0.30
2022-12-13T04:45:58.747Z,-0.30
2022-12-13T04:49:01.999Z,-0.30
2022-12-13T04:52:06.274Z,-0.50
2022-12-13T04:55:09.913Z,-0.40
2022-12-13T04:58:13.003Z,-0.40
2022-12-13T05:01:15.981Z,-0.40
2022-12-13T05:04:19.210Z,-0.50
2022-12-13T05:07:23.636Z,-0.30
2022-12-13T05:10:32.086Z,-0.70
2022-12-13T05:13:40.883Z,-0.80
2022-12-13T05:16:43.863Z,-0.40
2022-12-13T05:19:46.848Z,-0.70
2022-12-13T05:22:51.207Z,-0.30
2022-12-13T05:25:54.640Z,-0.70
2022-12-13T05:28:57.685Z,-0.30
2022-12-13T05:32:00.926Z,-0.30
2022-12-13T05:35:04.172Z,-0.40
2022-12-13T05:38:08.494Z,-0.40
2022-12-13T05:41:14.976Z,-0.40
2022-12-13T05:44:17.898Z,-0.40
2022-12-13T05:47:21.002Z,-0.40
2022-12-13T05:50:23.942Z,-0.50
2022-12-13T05:53:30.607Z,-0.30
2022-12-13T05:56:33.981Z,-0.40
2022-12-13T05:59:36.881Z,-0.60
2022-12-13T06:02:40.586Z,-0.50
2022-12-13T06:05:44.362Z,-0.70
2022-12-13T06:08:48.655Z,-0.80
2022-12-13T06:11:51.708Z,-0.50
2022-12-13T06:15:05.426Z,-0.40
2022-12-13T06:18:25.119Z,-0.40
2022-12-13T06:21:28.067Z,-0.40
2022-12-13T06:24:32.344Z,-0.30
2022-12-13T06:27:35.307Z,-0.60
2022-12-13T06:30:42.857Z,-0.40
2022-12-13T06:33:46.324Z,-0.50
2022-12-13T06:36:49.314Z,-0.70
2022-12-13T06:39:53.605Z,-0.70
2022-12-13T06:42:56.531Z,-0.70
2022-12-13T06:45:59.479Z,-0.40
2022-12-13T06:49:02.455Z,-0.40
2022-12-13T06:52:05.983Z,-0.50
2022-12-13T06:55:11.007Z,-0.30
2022-12-13T06:58:13.929Z,-0.50
2022-12-13T07:01:23.838Z,-0.80
2022-12-13T07:04:30.110Z,-0.70
2022-12-13T07:07:34.192Z,-0.70
2022-12-13T07:10:40.608Z,-0.60
2022-12-13T07:13:43.695Z,-0.50
2022-12-13T07:16:46.701Z,-0.40
2022-12-13T07:19:49.608Z,-0.60
2022-12-13T07:22:58.862Z,-0.80
2022-12-13T07:26:03.581Z,-0.60
2022-12-13T07:29:06.476Z,-0.70
2022-12-13T07:32:09.396Z,-0.60
2022-12-13T07:35:12.312Z,-0.60
2022-12-13T07:38:15.330Z,-0.60
2022-12-13T07:41:23.400Z,-0.60
2022-12-13T07:44:27.164Z,-0.60
2022-12-13T07:47:31.169Z,-0.60
2022-12-13T07:50:37.448Z,-0.60
2022-12-13T07:53:41.431Z,-0.60
2022-12-13T07:56:46.037Z,-0.60
2022-12-13T07:59:49.173Z,-0.70
2022-12-13T08:02:52.101Z,-0.80
2022-12-13T08:06:00.844Z,-0.70
2022-12-13T08:09:05.717Z,-0.60
2022-12-13T08:12:10.264Z,-1.00
2022-12-13T08:15:14.315Z,-0.60
2022-12-13T08:18:17.382Z,-0.90
2022-12-13T08:21:52.442Z,-0.80
2022-12-13T08:24:44.555Z,-0.70
2022-12-13T08:27:48.867Z,-0.60
2022-12-13T08:30:52.047Z,-0.80
2022-12-13T08:33:54.905Z,-0.60
2022-12-13T08:37:02.698Z,-0.70
2022-12-13T08:40:07.880Z,-0.70
2022-12-13T08:43:12.569Z,-0.40
2022-12-13T08:46:15.964Z,-0.80
2022-12-13T08:49:18.986Z,-0.70
2022-12-13T08:52:22.804Z,-0.50
2022-12-13T08:55:31.808Z,-0.70
2022-12-13T08:58:36.754Z,-0.80
2022-12-13T09:01:39.799Z,-0.50
2022-12-13T09:04:42.961Z,-0.50
2022-12-13T09:07:45.907Z,-0.30
2022-12-13T09:10:59.279Z,-0.40
2022-12-13T09:14:04.771Z,-0.50
2022-12-13T09:17:08.158Z,-0.20
2022-12-13T09:20:28.118Z,-0.30
2022-12-13T09:23:35.600Z,-0.10
2022-12-13T09:26:38.827Z,-0.30
2022-12-13T09:29:43.382Z,-0.20
2022-12-13T09:32:49.819Z,-0.30
2022-12-13T09:35:53.389Z,-0.10
2022-12-13T09:38:59.007Z,-0.20
2022-12-13T09:42:10.389Z,-0.20
2022-12-13T09:45:26.893Z,-0.30
2022-12-13T09:48:35.460Z,-0.30
2022-12-13T09:51:43.020Z,-0.40
2022-12-13T09:54:54.945Z,-0.50
2022-12-13T09:57:59.518Z,-0.20
2022-12-13T10:01:06.883Z,-0.40
2022-12-13T10:04:14.600Z,-0.30
2022-12-13T10:07:20.997Z,-0.10
2022-12-13T10:10:24.823Z,-0.30
2022-12-13T10:13:38.679Z,-0.30
2022-12-13T10:16:47.278Z,-0.20
2022-12-13T10:19:52.525Z,-0.20
2022-12-13T10:23:31.163Z,-0.30
2022-12-13T10:26:24.476Z,-0.20
2022-12-13T10:29:28.134Z,-0.40
2022-12-13T10:32:43.737Z,-0.20
2022-12-13T10:36:03.642Z,-0.20
2022-12-13T10:39:06.684Z,-0.20
2022-12-13T10:42:23.656Z,-0.30
2022-12-13T10:45:28.060Z,-0.10
2022-12-13T10:48:39.113Z,0.00
2022-12-13T10:51:42.322Z,-0.10
2022-12-13T10:54:48.170Z,0.00
2022-12-13T10:57:53.559Z,-0.10
2022-12-13T11:01:10.932Z,-0.20
2022-12-13T11:04:28.404Z,-0.20
2022-12-13T11:07:33.356Z,0.00
2022-12-13T11:10:36.519Z,-0.10
2022-12-13T11:13:45.818Z,0.10
2022-12-13T11:16:53.011Z,0.10
2022-12-13T11:20:01.536Z,0.00
2022-12-13T11:23:07.641Z,0.10
2022-12-13T11:26:16.450Z,0.10
2022-12-13T11:29:47.387Z,0.20
2022-12-13T11:33:19.271Z,0.20
2022-12-13T11:36:34.953Z,0.30
2022-12-13T11:39:43.202Z,0.30
2022-12-13T11:42:52.788Z,0.30
2022-12-13T11:45:58.802Z,0.20
2022-12-13T11:49:05.365Z,0.20
2022-12-13T11:52:17.561Z,0.20
2022-12-13T11:55:25.411Z,0.20
2022-12-13T12:02:05.878Z,-0.10
2022-12-13T12:05:25.968Z,0.20
2022-12-13T12:08:36.556Z,0.30
2022-12-13T12:11:46.678Z,0.10
2022-12-13T12:14:55.634Z,-0.10
2022-12-13T12:17:58.966Z,0.00
2022-12-13T12:21:14.930Z,0.10
2022-12-13T12:24:28.848Z,0.20
2022-12-13T12:27:39.919Z,0.30
2022-12-13T12:30:51.701Z,0.00
2022-12-13T12:34:05.461Z,0.10
2022-12-13T12:37:16.765Z,0.20
2022-12-13T12:44:14.956Z,0.00
2022-12-13T12:47:57.836Z,0.20
2022-12-13T12:51:03.689Z,0.30
2022-12-13T12:54:24.192Z,0.40
2022-12-13T12:57:40.816Z,0.20
2022-12-13T13:00:53.578Z,0.20
2022-12-13T13:04:01.903Z,0.10
2022-12-13T13:07:23.080Z,-0.10
2022-12-13T13:10:27.643Z,0.10
2022-12-13T13:13:47.227Z,-0.10
2022-12-13T13:16:50.405Z,0.00
2022-12-13T13:20:04.045Z,0.00
2022-12-13T13:23:39.793Z,0.20
2022-12-13T13:26:40.117Z,0.10
2022-12-13T13:29:44.595Z,0.00
2022-12-13T13:32:49.062Z,-0.20
2022-12-13T13:35:53.574Z,-0.20
2022-12-13T13:39:01.598Z,0.20
2022-12-13T13:42:17.998Z,0.10
2022-12-13T13:45:23.997Z,-0.10
2022-12-13T13:48:55.009Z,0.00
2022-12-13T13:52:26.387Z,0.10
2022-12-13T13:55:49.930Z,-0.10
2022-12-13T13:59:25.135Z,0.00
2022-12-13T14:03:09.093Z,0.00
2022-12-13T14:07:00.647Z,0.20
2022-12-13T14:10:24.484Z,0.30
2022-12-13T14:14:00.837Z,0.00
2022-12-13T14:17:38.577Z,0.20
2022-12-13T14:20:49.911Z,0.20
2022-12-13T14:24:05.288Z,0.30
2022-12-13T14:27:20.660Z,0.00
2022-12-13T14:30:28.237Z,-0.10
2022-12-13T14:33:32.195Z,0.10
2022-12-13T14:36:39.065Z,0.20
2022-12-13T14:39:46.087Z,0.30
2022-12-13T14:42:54.714Z,-0.10
2022-12-13T14:45:59.276Z,0.00
2022-12-13T14:49:07.504Z,0.10
2022-12-13T14:52:26.730Z,0.10
2022-12-13T14:55:36.145Z,0.00
2022-12-13T14:58:39.654Z,0.20
2022-12-13T15:01:43.348Z,0.30
2022-12-13T15:04:46.311Z,0.10
2022-12-13T15:07:50.056Z,0.00
2022-12-13T15:10:56.836Z,0.00
2022-12-13T15:13:59.865Z,0.00
2022-12-13T15:17:03.624Z,0.00
2022-12-13T15:20:24.874Z,0.00
2022-12-13T15:23:32.583Z,-0.20
2022-12-13T15:26:37.382Z,-0.10
2022-12-13T15:29:41.831Z,-0.10
2022-12-13T15:33:02.836Z,-0.10
2022-12-13T15:36:09.968Z,-0.20
2022-12-13T15:39:17.992Z,-0.20
2022-12-13T15:42:25.034Z,-0.30
2022-12-13T15:45:34.943Z,-0.40
2022-12-13T15:48:48.425Z,-0.10
2022-12-13T15:51:59.662Z,-0.10
2022-12-13T15:55:28.646Z,-0.20
2022-12-13T15:58:36.606Z,-0.30
2022-12-13T16:01:39.537Z,-0.20
2022-12-13T16:04:42.594Z,-0.30
2022-12-13T16:07:56.162Z,-0.40
2022-12-13T16:11:00.269Z,-0.20
2022-12-13T16:14:49.344Z,-0.50
2022-12-13T16:17:54.427Z,-0.40
2022-12-13T16:21:02.424Z,-0.60
2022-12-13T16:24:06.132Z,-0.50
2022-12-13T16:27:10.633Z,-0.40
2022-12-13T16:30:22.473Z,-0.40
2022-12-13T16:33:27.931Z,-0.50
2022-12-13T16:36:30.977Z,-0.70
2022-12-13T16:39:33.872Z,-0.70
2022-12-13T16:42:36.867Z,-0.70
2022-12-13T16:45:44.426Z,-0.60
2022-12-13T16:48:47.340Z,-0.70
2022-12-13T16:51:50.669Z,-0.80
2022-12-13T16:54:53.752Z,-0.90
2022-12-13T16:57:58.947Z,-0.70
2022-12-13T17:01:08.648Z,-0.60
2022-12-13T17:04:19.304Z,-0.60
2022-12-13T17:07:23.537Z,-1.10
2022-12-13T17:10:26.910Z,-1.10
2022-12-13T17:13:30.097Z,-0.80
2022-12-13T17:16:34.809Z,-1.10
2022-12-13T17:19:37.862Z,-1.20
2022-12-13T17:22:40.880Z,-0.90
2022-12-13T17:25:43.809Z,-1.00
2022-12-13T17:28:47.275Z,-1.20
2022-12-13T17:31:51.986Z,-1.20
2022-12-13T17:34:55.895Z,-1.40
2022-12-13T17:37:59.119Z,-1.30
2022-12-13T17:41:02.052Z,-1.40
2022-12-13T17:44:05.113Z,-1.30
2022-12-13T17:47:09.793Z,-1.30
2022-12-13T17:50:13.339Z,-1.40
2022-12-13T17:53:16.324Z,-1.50
2022-12-13T17:56:19.728Z,-1.60
2022-12-13T17:59:23.178Z,-1.50
2022-12-13T18:02:27.813Z,-1.40
2022-12-13T18:05:33.015Z,-1.50
2022-12-13T18:08:36.734Z,-1.60
2022-12-13T18:11:39.715Z,-1.40
2022-12-13T18:14:43.555Z,-1.60
2022-12-13T18:18:10.657Z,-1.50
2022-12-13T18:21:13.228Z,-1.60
2022-12-13T18:24:16.230Z,-1.70
2022-12-13T18:27:19.300Z,-1.70
2022-12-13T18:30:22.819Z,-1.80
2022-12-13T18:33:27.617Z,-1.80
2022-12-13T18:36:31.072Z,-1.90
2022-12-13T18:39:34.899Z,-2.10
2022-12-13T18:42:37.811Z,-1.90
2022-12-13T18:45:40.706Z,-2.20
2022-12-13T18:48:46.801Z,-2.20
2022-12-13T18:51:49.751Z,-2.20
2022-12-13T18:54:54.066Z,-2.20
2022-12-13T18:57:57.326Z,-2.10
2022-12-13T19:01:00.420Z,-2.20
2022-12-13T19:04:04.825Z,-2.10
2022-12-13T19:07:08.037Z,-2.30
2022-12-13T19:10:11.392Z,-2.20
2022-12-13T19:13:14.371Z,-2.30
2022-12-13T19:16:21.268Z,-2.30
2022-12-13T19:19:25.630Z,-2.30
2022-12-13T19:22:30.232Z,-2.50
2022-12-13T19:25:33.228Z,-2.40
2022-12-13T19:28:36.503Z,-2.50
2022-12-13T19:31:39.502Z,-2.40
2022-12-13T19:34:43.788Z,-2.40
2022-12-13T19:37:46.735Z,-2.50
2022-12-13T19:40:49.650Z,-2.60
2022-12-13T19:43:53.555Z,-2.60
2022-12-13T19:46:57.053Z,-2.50
2022-12-13T19:50:01.467Z,-2.70
2022-12-13T19:53:04.542Z,-2.80
2022-12-13T19:56:10.928Z,-2.90
2022-12-13T19:59:13.834Z,-2.70
2022-12-13T20:02:16.740Z,-2.70
2022-12-13T20:05:21.022Z,-2.80
2022-12-13T20:08:23.982Z,-3.10
2022-12-13T20:11:26.930Z,-3.20
2022-12-13T20:14:29.978Z,-3.10
2022-12-13T20:17:33.434Z,-3.00
2022-12-13T20:21:02.503Z,-3.30
2022-12-13T20:24:00.579Z,-3.20
2022-12-13T20:27:03.622Z,-3.20
2022-12-13T20:30:08.075Z,-3.30
2022-12-13T20:33:11.010Z,-3.20
2022-12-13T20:36:25.852Z,-3.10
2022-12-13T20:39:29.524Z,-3.20
2022-12-13T20:42:33.558Z,-3.30
2022-12-13T20:45:36.429Z,-3.20
2022-12-13T20:48:41.611Z,-3.60
2022-12-13T20:51:45.974Z,-3.20
2022-12-13T20:54:48.917Z,-3.20
2022-12-13T20:57:51.891Z,-3.10
2022-12-13T21:00:55.376Z,-3.40
2022-12-13T21:04:00.109Z,-3.20
2022-12-13T21:07:04.382Z,-3.10
2022-12-13T21:10:08.150Z,-3.30
2022-12-13T21:13:11.089Z,-3.10
2022-12-13T21:16:14.096Z,-3.10
2022-12-13T21:19:19.220Z,-3.20
2022-12-13T21:22:23.463Z,-3.00
2022-12-13T21:25:26.406Z,-3.40
2022-12-13T21:28:29.504Z,-3.20
2022-12-13T21:31:32.543Z,-3.10
2022-12-13T21:34:35.618Z,-3.40
2022-12-13T21:37:40.019Z,-3.40
2022-12-13T21:40:45.688Z,-3.40
2022-12-13T21:43:49.042Z,-3.10
2022-12-13T21:47:11.802Z,-3.40
2022-12-13T21:50:15.378Z,-3.50
2022-12-13T21:53:19.656Z,-3.40
2022-12-13T21:56:44.263Z,-3.30
2022-12-13T21:59:47.310Z,-3.70
2022-12-13T22:02:50.283Z,-3.40
2022-12-13T22:05:53.232Z,-3.60
2022-12-13T22:08:57.556Z,-3.70
2022-12-13T22:12:00.740Z,-3.50
2022-12-13T22:15:05.270Z,-3.70
2022-12-13T22:18:08.258Z,-3.60
2022-12-13T22:21:11.447Z,-3.60
2022-12-13T22:24:16.084Z,-3.70
2022-12-13T22:27:23.337Z,-3.40
2022-12-13T22:30:26.558Z,-3.50
2022-12-13T22:33:29.474Z,-3.50
2022-12-13T22:36:32.434Z,-3.80
2022-12-13T22:39:36.951Z,-3.80
2022-12-13T22:42:39.918Z,-3.40
2022-12-13T22:45:42.949Z,-3.80
2022-12-13T22:48:46.477Z,-3.50
2022-12-13T22:51:49.554Z,-3.70
2022-12-13T22:54:53.875Z,-3.60
2022-12-13T22:57:56.823Z,-3.90
2022-12-13T23:01:00.039Z,-3.80
2022-12-13T23:04:03.151Z,-3.80
2022-12-13T23:07:06.098Z,-3.60
2022-12-13T23:10:31.098Z,-3.90
2022-12-13T23:13:33.102Z,-3.90
2022-12-13T23:16:36.862Z,-3.80
2022-12-13T23:19:49.920Z,-3.70
2022-12-13T23:22:55.880Z,-3.80
2022-12-13T23:26:08.957Z,-4.10
2022-12-13T23:29:11.907Z,-3.70
2022-12-13T23:32:15.528Z,-3.80
2022-12-13T23:35:18.482Z,-4.00
2022-12-13T23:38:21.379Z,-4.10
2022-12-13T23:41:32.311Z,-4.10
2022-12-13T23:44:36.848Z,-4.10
2022-12-13T23:47:40.005Z,-4.00
2022-12-13T23:50:42.934Z,-4.20
2022-12-13T23:53:46.244Z,-4.20
2022-12-13T23:56:50.770Z,-4.20
2022-12-13T23:59:53.986Z,-4.20
